Terminal Aerodrome Forecast
Issued by NWS

Home | Current Version | Previous Version | Text Only | Print | Product List | Glossary On
Versions: 1 2 3 4 5 6 7 8 9 10 11 12 13 14 15 16 17 18 19 20 21 22 23 24 25 26
000
FTUS46 KSGX 172300
TAFSAN
TAF
KSAN 172337Z 1800/1906 29010KT P6SM SCT040 BKN200
     FM180200 28006KT P6SM VCSH BKN040
     FM181700 VRB04KT P6SM SCT025 BKN035
     FM182000 29009KT P6SM SCT025 SCT060
     FM190100 VRB04KT P6SM SCT040=

USA.gov is the U.S. government's official web portal to all federal, state and local government web resources and services.